Pagrindinis puslapis
METAR-TAF:

METAR-TAF

Oro uostai :

Muş, Turkija

platuma: 38-45N, ilguma: 041-40E, Aukštis: 1266 m

Dabartinis oras

Ataskaita buvo paskelbta 43 minutes, ne 06:50 UTC
Vėjas 3 kt iš Vakarų/Šiaurės Vakarų, svyruoja nuo Pietų ir Šiaurės
Temperatūra 24°C
Drėgmė 25%
Slėgis 1018 hPa
Matomumas 10 km arba daugiau
nėra debesų žemiau 1500 m ir nėra kamuolinių lietaus debesų

METAR: LTCK 180650Z 29003KT 190V350 CAVOK 24/03 Q1018

Laikas: 10:33 (07:33 UTC)

Prognozė

Ataskaita buvo paskelbta 2 valandos ir 53 minutes, ne 04:40 UTC
Prognozė galioja nuo 18 metu 06 UTC su 18 metu 15 UTC
Vėjas 9 kt iš Vakarų/Pietvakarių
Matomumas 10 km arba daugiau
nėra debesų žemiau 1500 m ir nėra kamuolinių lietaus debesų
Tapsmas
nuo 18 metu 08 UTC su 18 metu 10 UTC
Mažai debesys ne aukštis 4000 ft

TAF: LTCK 180440Z 1806/1815 25009KT CAVOK BECMG 1808/1810 FEW040

Orai ataskaitas ir orų prognozės (METAR, TAF).

turimą stotys yra geltonos ir raudonos taškus žemėlapyje.

Perkelti pele per norėdami pamatyti stoties vardą.

Tada spustelėkite, norėdami matyti oro stebėjimo ir prognozės.

Norėdami pakeisti žemėlapį: spustelėkite ant žalios mygtukų su juodo kryžiaus žemyn,; žalią mygtuką su brūkšneliu, jei norite nutolinti; arba žalių rodyklių gretimoms žemėlapius.


METAR-TAF: